Time;durP1;ratioP1;P1;durP2;ratioP2;P2;SDS_P1;SDS_P2;PMS_P1;PMS_P2;Temp;Humidity;BMP_temperature;BMP_pressure;BME280_temperature;BME280_humidity;BME280_pressure;Samples;Min_cycle;Max_cycle;Signal;HPM_P1;HPM_P2
2022/09/29 00:01:34;;;;;;;7.15;6.15;;;;;;;8.54;100.00;99016.78;8352686;28;20041;-47
2022/09/29 00:05:35;;;;;;;7.07;6.38;;;;;;;8.28;100.00;99010.63;8353794;28;20636;-47
2022/09/29 00:09:35;;;;;;;10.50;7.18;;;;;;;8.39;100.00;99013.03;8356106;28;20458;-47
2022/09/29 00:13:36;;;;;;;7.53;6.72;;;;;;;8.33;100.00;99019.06;8370240;28;20045;-47
2022/09/29 00:17:36;;;;;;;7.68;6.28;;;;;;;8.30;100.00;99020.22;8374785;28;20139;-47
2022/09/29 00:21:36;;;;;;;7.28;5.47;;;;;;;8.32;100.00;99017.38;8384207;28;20107;-47
2022/09/29 00:25:37;;;;;;;7.90;5.32;;;;;;;8.32;100.00;99006.59;8374378;28;20051;-47
2022/09/29 00:29:37;;;;;;;7.28;5.90;;;;;;;8.31;100.00;99004.91;8378498;28;20484;-47
2022/09/29 00:33:37;;;;;;;6.75;5.60;;;;;;;8.15;100.00;98999.44;8385064;28;20055;-48
2022/09/29 00:37:39;;;;;;;8.55;5.03;;;;;;;8.05;100.00;99002.25;8380864;28;20049;-48
2022/09/29 00:41:41;;;;;;;6.00;5.40;;;;;;;8.04;100.00;98998.72;8378654;28;20186;-47
2022/09/29 00:45:41;;;;;;;5.32;4.68;;;;;;;7.99;100.00;99010.97;8382455;28;20123;-47
2022/09/29 00:49:49;;;;;;;5.68;5.18;;;;;;;7.90;100.00;99002.00;8364808;28;20040;-47
2022/09/29 00:53:50;;;;;;;7.03;5.70;;;;;;;7.98;100.00;99007.44;8385427;28;20433;-47
2022/09/29 00:58:04;;;;;;;6.43;5.82;;;;;;;7.89;100.00;99010.25;8385002;28;20082;-48
2022/09/29 01:02:05;;;;;;;10.15;6.57;;;;;;;8.06;100.00;99004.78;8362796;28;20032;-51
2022/09/29 01:06:11;;;;;;;7.50;6.50;;;;;;;8.06;100.00;99006.66;8361179;28;20036;-48
2022/09/29 01:10:15;;;;;;;6.95;5.53;;;;;;;7.88;100.00;99014.81;8369951;28;20028;-47
2022/09/29 01:14:16;;;;;;;7.85;4.35;;;;;;;7.74;100.00;99012.69;8395512;28;20070;-49
2022/09/29 01:18:17;;;;;;;9.77;5.43;;;;;;;7.72;100.00;99003.94;8394293;28;20064;-47
2022/09/29 01:22:49;;;;;;;7.30;6.43;;;;;;;7.75;100.00;99009.00;8394733;28;20091;-48
2022/09/29 01:27:09;;;;;;;5.85;5.35;;;;;;;7.59;100.00;99014.28;8378750;28;20529;-48
2022/09/29 01:35:54;;;;;;;7.20;6.50;;;;;;;7.58;100.00;99014.44;8323866;27;20046;-51
2022/09/29 01:44:34;;;;;;;10.85;6.38;;;;;;;7.61;100.00;99020.34;8386571;27;20115;-49
2022/09/29 01:48:41;;;;;;;7.22;6.45;;;;;;;7.22;100.00;99027.13;8360138;28;20052;-47
2022/09/29 01:52:45;;;;;;;8.85;6.10;;;;;;;7.45;100.00;99028.31;8385014;28;20486;-47
2022/09/29 01:56:52;;;;;;;8.40;5.90;;;;;;;7.01;100.00;99033.81;8384179;28;20036;-47
2022/09/29 02:00:57;;;;;;;8.10;5.03;;;;;;;6.82;100.00;99034.84;8383839;28;20052;-50
2022/09/29 02:05:03;;;;;;;11.07;7.35;;;;;;;7.03;100.00;99032.69;8384552;28;20029;-50
2022/09/29 02:09:11;;;;;;;9.98;6.88;;;;;;;7.14;100.00;99023.53;8383967;28;20037;-47
2022/09/29 02:13:14;;;;;;;11.40;7.10;;;;;;;7.21;100.00;99029.97;8366868;28;20418;-50
2022/09/29 02:17:19;;;;;;;8.63;6.77;;;;;;;6.87;100.00;99021.78;8384352;28;20374;-46
2022/09/29 02:21:21;;;;;;;8.15;6.45;;;;;;;6.61;100.00;99025.38;8383643;28;20063;-47
2022/09/29 02:25:22;;;;;;;8.40;5.95;;;;;;;6.60;100.00;99024.53;8384875;28;20028;-46
2022/09/29 02:29:23;;;;;;;8.35;6.55;;;;;;;6.74;100.00;99023.19;8383698;28;20147;-47
2022/09/29 02:33:24;;;;;;;8.07;5.47;;;;;;;6.36;100.00;99031.47;8361162;28;20034;-47
2022/09/29 02:38:03;;;;;;;7.45;5.80;;;;;;;6.29;100.00;99033.94;8350185;28;20083;-46
2022/09/29 02:42:28;;;;;;;9.57;6.03;;;;;;;6.33;100.00;99037.13;8350421;28;20049;-49
2022/09/29 02:47:04;;;;;;;7.28;6.18;;;;;;;6.32;100.00;99030.94;8345761;28;20049;-46
2022/09/29 02:56:02;;;;;;;10.02;7.63;;;;;;;6.53;100.00;99034.22;8393042;27;20473;-47
2022/09/29 03:00:09;;;;;;;14.73;8.30;;;;;;;6.46;100.00;99033.09;8385199;28;20033;-52
2022/09/29 03:04:09;;;;;;;17.02;8.63;;;;;;;6.50;100.00;99030.97;8384842;28;20119;-55
2022/09/29 03:08:10;;;;;;;18.25;11.55;;;;;;;6.67;100.00;99028.31;8385243;28;20040;-52
2022/09/29 03:12:11;;;;;;;14.07;9.35;;;;;;;6.71;100.00;99031.53;8385446;28;20117;-52
2022/09/29 03:16:11;;;;;;;13.20;9.63;;;;;;;6.69;100.00;99020.94;8384646;28;20036;-54
2022/09/29 03:20:12;;;;;;;13.43;10.15;;;;;;;6.63;100.00;99029.59;8383419;28;20053;-53
2022/09/29 03:24:12;;;;;;;11.75;8.88;;;;;;;6.59;100.00;99028.19;8384295;28;20029;-51
2022/09/29 03:28:12;;;;;;;16.65;8.23;;;;;;;6.58;100.00;99025.66;8372962;28;20026;-53
2022/09/29 03:32:13;;;;;;;10.05;7.32;;;;;;;6.47;100.00;99029.44;8352025;28;20037;-50
2022/09/29 03:36:13;;;;;;;11.23;8.38;;;;;;;6.38;100.00;99030.34;8350740;28;20545;-51
2022/09/29 03:40:14;;;;;;;13.50;7.50;;;;;;;6.39;100.00;99036.53;8351056;28;20079;-53
2022/09/29 03:44:14;;;;;;;14.23;8.93;;;;;;;6.45;100.00;99031.44;8351545;28;20033;-53
2022/09/29 03:48:16;;;;;;;12.35;8.20;;;;;;;6.42;100.00;99036.25;8351037;28;20053;-54
2022/09/29 03:52:16;;;;;;;10.35;7.88;;;;;;;6.36;100.00;99036.84;8350881;28;20368;-51
2022/09/29 03:56:17;;;;;;;14.65;8.20;;;;;;;6.04;100.00;99043.50;8350273;28;20037;-51
2022/09/29 04:00:17;;;;;;;13.27;8.88;;;;;;;6.20;100.00;99042.88;8342355;28;20091;-53
2022/09/29 04:04:17;;;;;;;16.15;9.00;;;;;;;6.28;100.00;99053.69;8336911;28;20049;-50
2022/09/29 04:08:18;;;;;;;12.65;8.77;;;;;;;6.30;100.00;99054.41;8317812;28;20593;-54
2022/09/29 04:12:18;;;;;;;16.67;9.13;;;;;;;6.27;100.00;99054.69;8324634;28;20033;-52
2022/09/29 04:16:19;;;;;;;18.30;9.30;;;;;;;6.26;100.00;99046.78;8322555;28;20087;-53
2022/09/29 04:20:19;;;;;;;13.15;9.15;;;;;;;6.13;100.00;99049.81;8313069;28;20534;-54
2022/09/29 04:24:20;;;;;;;13.77;9.48;;;;;;;6.06;100.00;99056.78;8323868;28;20131;-53
2022/09/29 04:28:20;;;;;;;16.25;10.20;;;;;;;6.16;100.00;99060.25;8324373;28;20441;-51
2022/09/29 04:32:21;;;;;;;14.50;8.95;;;;;;;6.15;100.00;99066.63;8323746;28;20124;-49
2022/09/29 04:36:21;;;;;;;12.38;9.43;;;;;;;6.11;100.00;99065.22;8324322;28;20172;-53
2022/09/29 04:40:23;;;;;;;15.18;9.43;;;;;;;6.15;100.00;99069.28;8323631;28;20142;-52
2022/09/29 04:44:24;;;;;;;13.27;9.27;;;;;;;6.06;100.00;99074.72;8324158;28;20374;-53
2022/09/29 04:48:25;;;;;;;17.48;10.00;;;;;;;6.07;100.00;99072.72;8314683;28;20052;-53
2022/09/29 04:52:25;;;;;;;19.80;10.60;;;;;;;6.17;100.00;99074.50;8322952;28;20563;-53
2022/09/29 04:56:30;;;;;;;17.20;10.23;;;;;;;6.22;100.00;99066.88;8322424;28;20291;-49
2022/09/29 05:00:31;;;;;;;17.38;10.45;;;;;;;6.16;100.00;99079.03;8320790;28;20477;-50
2022/09/29 05:04:31;;;;;;;17.60;9.20;;;;;;;6.16;100.00;99079.03;8313781;28;20422;-52
2022/09/29 05:08:32;;;;;;;15.57;10.13;;;;;;;6.23;100.00;99082.81;8320134;28;20051;-53
2022/09/29 05:12:32;;;;;;;19.47;10.00;;;;;;;6.27;100.00;99084.22;8317333;28;20160;-56
2022/09/29 05:16:33;;;;;;;14.50;9.52;;;;;;;6.24;100.00;99087.19;8318239;28;20287;-53
2022/09/29 05:20:33;;;;;;;13.57;10.20;;;;;;;6.26;100.00;99092.41;8321508;28;20037;-52
2022/09/29 05:24:34;;;;;;;14.55;10.15;;;;;;;6.10;100.00;99095.72;8322174;28;20069;-52
2022/09/29 05:28:35;;;;;;;12.80;8.63;;;;;;;5.89;100.00;99108.50;8321920;28;20128;-52
2022/09/29 05:32:36;;;;;;;12.93;9.63;;;;;;;5.88;100.00;99104.13;8317070;28;20118;-52
2022/09/29 05:36:36;;;;;;;13.10;8.80;;;;;;;6.26;100.00;99108.50;8322886;28;20045;-53
2022/09/29 05:40:36;;;;;;;14.70;10.57;;;;;;;6.08;100.00;99103.09;8321882;28;20081;-52
2022/09/29 05:44:37;;;;;;;13.45;9.68;;;;;;;6.04;100.00;99115.09;8318804;28;20057;-51
2022/09/29 05:48:37;;;;;;;18.77;10.20;;;;;;;6.00;100.00;99116.38;8330989;28;20049;-52
2022/09/29 05:52:39;;;;;;;15.10;9.20;;;;;;;6.09;100.00;99126.22;8315581;28;20625;-52
2022/09/29 05:56:39;;;;;;;15.98;10.93;;;;;;;6.21;100.00;99125.03;8317456;28;20054;-50
2022/09/29 06:00:40;;;;;;;15.00;10.38;;;;;;;6.29;100.00;99122.47;8316582;28;20061;-52
2022/09/29 06:04:40;;;;;;;13.45;9.00;;;;;;;6.38;100.00;99121.59;8320129;28;20045;-52
2022/09/29 06:08:41;;;;;;;19.65;9.20;;;;;;;6.45;100.00;99128.06;8321562;28;20116;-52
2022/09/29 06:12:42;;;;;;;16.20;9.48;;;;;;;6.56;100.00;99125.16;8320040;28;20037;-55
2022/09/29 06:16:43;;;;;;;12.38;9.50;;;;;;;6.67;100.00;99133.03;8316479;28;20055;-52
2022/09/29 06:20:46;;;;;;;15.57;9.38;;;;;;;6.74;100.00;99139.47;8319654;28;20071;-55
2022/09/29 06:24:46;;;;;;;17.00;10.65;;;;;;;7.00;100.00;99131.53;8319929;28;20057;-52
2022/09/29 06:28:47;;;;;;;13.02;9.48;;;;;;;7.16;100.00;99137.91;8342402;28;20529;-55
2022/09/29 06:32:47;;;;;;;16.98;9.52;;;;;;;7.39;100.00;99141.00;8321322;28;20045;-52
2022/09/29 06:37:48;;;;;;;15.02;8.23;;;;;;;7.50;100.00;99149.66;8320253;28;20566;-51
2022/09/29 06:41:08;;;;;;;11.93;7.75;;;;;;;7.74;100.00;99143.63;8319603;28;20037;-53
2022/09/29 06:45:10;;;;;;;12.32;8.18;;;;;;;7.76;100.00;99145.19;8320375;28;20095;-51
2022/09/29 06:49:12;;;;;;;14.32;7.85;;;;;;;7.99;100.00;99146.34;8320358;28;20041;-53
2022/09/29 06:53:13;;;;;;;12.07;8.05;;;;;;;7.99;100.00;99159.81;8320299;28;20091;-56
2022/09/29 06:57:13;;;;;;;11.02;8.43;;;;;;;8.17;100.00;99153.53;8320350;28;20033;-52
2022/09/29 07:01:14;;;;;;;11.75;7.63;;;;;;;8.21;100.00;99160.28;8319888;28;20116;-55
2022/09/29 07:05:15;;;;;;;20.95;7.90;;;;;;;8.31;100.00;99163.75;8318949;28;20381;-53
2022/09/29 07:09:16;;;;;;;15.07;7.90;;;;;;;8.37;100.00;99160.41;8319823;28;20030;-52
2022/09/29 07:13:17;;;;;;;22.95;9.25;;;;;;;8.38;100.00;99156.75;8319522;28;20065;-53
2022/09/29 07:17:17;;;;;;;11.50;7.82;;;;;;;8.65;100.00;99164.59;8319906;28;20033;-52
2022/09/29 07:21:18;;;;;;;10.60;7.43;;;;;;;8.66;100.00;99163.59;8319728;28;20034;-52
2022/09/29 07:25:18;;;;;;;9.55;6.70;;;;;;;8.85;100.00;99161.50;8319903;28;20323;-54
2022/09/29 07:29:19;;;;;;;12.18;7.60;;;;;;;9.21;100.00;99167.50;8318948;28;20025;-52
2022/09/29 07:33:19;;;;;;;8.30;6.57;;;;;;;9.46;100.00;99161.16;8320245;28;20037;-51
2022/09/29 07:37:20;;;;;;;9.90;7.00;;;;;;;9.56;100.00;99169.91;8319096;28;20507;-55
2022/09/29 07:41:21;;;;;;;9.15;7.28;;;;;;;10.10;100.00;99177.38;8323944;28;20315;-54
2022/09/29 07:45:22;;;;;;;11.50;7.57;;;;;;;10.45;99.34;99181.53;8325612;28;20064;-52
2022/09/29 07:49:22;;;;;;;10.32;7.18;;;;;;;10.47;100.00;99179.50;8323063;28;20084;-52
2022/09/29 07:53:23;;;;;;;10.93;6.80;;;;;;;10.49;100.00;99182.88;8325175;28;20804;-52
2022/09/29 07:57:23;;;;;;;11.40;7.20;;;;;;;10.95;97.18;99185.56;8324998;28;20128;-53
2022/09/29 08:01:24;;;;;;;11.70;7.18;;;;;;;11.19;96.61;99193.59;8324523;28;20495;-56
2022/09/29 08:05:26;;;;;;;15.75;7.88;;;;;;;11.29;97.73;99186.09;8324839;28;20037;-53
2022/09/29 08:09:26;;;;;;;9.88;6.68;;;;;;;11.37;95.54;99186.03;8323599;28;20038;-52
2022/09/29 08:13:27;;;;;;;11.80;7.50;;;;;;;11.48;93.68;99188.38;8324883;28;21155;-53
2022/09/29 08:17:27;;;;;;;9.13;6.32;;;;;;;11.75;93.39;99185.13;8324703;28;20045;-53
2022/09/29 08:21:29;;;;;;;10.07;7.10;;;;;;;12.02;93.88;99193.75;8323306;28;20071;-53
2022/09/29 08:25:29;;;;;;;8.07;6.75;;;;;;;12.46;90.58;99194.69;8324556;28;20056;-50
2022/09/29 08:29:29;;;;;;;10.93;6.43;;;;;;;12.47;88.95;99197.19;8325056;28;20046;-50
2022/09/29 08:33:31;;;;;;;8.65;7.45;;;;;;;12.79;90.44;99201.44;8324431;28;20037;-53
2022/09/29 08:37:31;;;;;;;11.90;7.13;;;;;;;12.89;88.74;99208.28;8324054;28;20075;-51
2022/09/29 08:41:46;;;;;;;8.30;6.53;;;;;;;12.55;88.09;99209.84;8323476;28;20160;-51
2022/09/29 08:45:55;;;;;;;7.68;6.10;;;;;;;12.98;88.88;99214.44;8323352;28;20041;-51
2022/09/29 08:50:05;;;;;;;11.48;7.25;;;;;;;13.40;86.95;99218.19;8324215;28;20065;-51
2022/09/29 08:54:15;;;;;;;7.95;6.35;;;;;;;13.45;84.55;99223.03;8324002;28;20042;-50
2022/09/29 08:58:16;;;;;;;13.35;6.70;;;;;;;13.73;86.50;99224.00;8323526;28;20108;-51
2022/09/29 09:07:20;;;;;;;10.00;6.00;;;;;;;14.33;85.20;99221.69;8315202;27;20390;-51
2022/09/29 09:11:49;;;;;;;10.43;6.18;;;;;;;16.11;75.75;99228.75;8316108;28;20048;-53
2022/09/29 09:16:29;;;;;;;7.18;5.30;;;;;;;17.34;71.29;99224.25;8315570;28;20498;-52
2022/09/29 09:20:35;;;;;;;10.40;5.68;;;;;;;18.54;68.56;99230.59;8314942;28;20091;-54
2022/09/29 09:24:47;;;;;;;11.93;5.07;;;;;;;19.52;64.24;99228.53;8314763;28;20065;-54
2022/09/29 09:28:54;;;;;;;8.93;5.15;;;;;;;19.38;65.23;99226.19;8314687;28;20076;-54
2022/09/29 09:33:00;;;;;;;7.38;4.90;;;;;;;20.75;60.08;99225.09;8316510;28;20045;-52
2022/09/29 09:37:12;;;;;;;8.23;5.18;;;;;;;20.67;60.16;99227.31;8314138;28;20112;-54
2022/09/29 09:41:17;;;;;;;6.63;4.38;;;;;;;21.25;57.77;99223.56;8309156;28;20501;-54
2022/09/29 09:45:31;;;;;;;9.77;4.90;;;;;;;21.53;56.84;99228.28;8309252;28;20034;-54
2022/09/29 09:49:39;;;;;;;7.55;4.20;;;;;;;21.10;57.44;99233.34;8312144;28;20037;-51
2022/09/29 09:53:44;;;;;;;7.93;4.88;;;;;;;20.90;57.74;99232.84;8304061;28;20121;-51
2022/09/29 10:02:20;;;;;;;8.50;4.72;;;;;;;23.50;53.18;99225.28;8288288;28;20816;-54
2022/09/29 10:06:21;;;;;;;8.35;4.72;;;;;;;22.49;54.85;99229.16;8249719;28;20408;-51
2022/09/29 10:10:25;;;;;;;6.90;3.92;;;;;;;23.69;52.11;99229.41;8249307;28;20385;-52
2022/09/29 10:14:27;;;;;;;8.57;3.83;;;;;;;23.23;52.72;99232.59;8250583;28;20603;-54
2022/09/29 10:18:36;;;;;;;7.93;4.30;;;;;;;23.02;52.88;99234.19;8249766;28;20034;-51
2022/09/29 10:22:37;;;;;;;6.95;4.57;;;;;;;22.82;53.09;99231.97;8282365;28;20045;-51
2022/09/29 10:26:42;;;;;;;5.75;4.00;;;;;;;22.93;53.29;99230.19;8256610;28;20045;-53
2022/09/29 10:30:42;;;;;;;;;;;;;;;24.07;50.77;99237.63;8222732;28;20203;-54
2022/09/29 10:34:48;;;;;;;8.17;4.13;;;;;;;23.27;50.60;99239.31;8218440;28;19986;-53
2022/09/29 10:38:51;;;;;;;4.20;3.63;;;;;;;23.84;49.89;99238.72;8219024;28;20408;-54
2022/09/29 10:42:52;;;;;;;5.72;4.18;;;;;;;22.34;52.23;99237.13;8244835;28;20041;-51
2022/09/29 10:46:54;;;;;;;5.70;3.85;;;;;;;22.19;52.38;99244.25;8240587;28;20100;-53
2022/09/29 10:50:58;;;;;;;5.68;3.58;;;;;;;23.94;49.89;99240.78;8247629;28;20037;-53
2022/09/29 10:55:04;;;;;;;5.82;4.00;;;;;;;22.47;50.92;99247.00;8248656;28;20097;-52
2022/09/29 10:59:05;;;;;;;5.88;3.03;;;;;;;20.43;55.05;99247.59;8248470;28;20046;-51
2022/09/29 11:03:18;;;;;;;5.03;3.05;;;;;;;18.54;57.46;99249.75;8258655;28;20034;-53
2022/09/29 11:07:19;;;;;;;5.88;3.28;;;;;;;17.62;60.33;99251.31;8277961;28;20549;-50
2022/09/29 11:11:25;;;;;;;3.42;2.15;;;;;;;17.20;59.52;99256.22;8271125;28;20441;-53
2022/09/29 11:15:37;;;;;;;6.78;2.45;;;;;;;16.79;62.26;99254.81;8258899;28;20034;-52
2022/09/29 11:19:38;;;;;;;5.82;2.88;;;;;;;16.39;63.40;99266.72;8259320;28;20251;-51
2022/09/29 11:23:57;;;;;;;6.60;2.75;;;;;;;16.20;63.55;99257.50;8259117;28;20050;-51
2022/09/29 11:28:36;;;;;;;4.30;2.28;;;;;;;16.71;64.36;99257.78;8258353;28;20030;-53
2022/09/29 11:33:10;;;;;;;4.70;3.00;;;;;;;21.61;53.70;99247.19;8238493;28;20034;-52
2022/09/29 11:37:40;;;;;;;3.63;2.97;;;;;;;23.50;49.39;99248.19;8233677;28;20626;-50
2022/09/29 11:46:57;;;;;;;3.70;2.80;;;;;;;26.25;43.94;99260.94;8283731;28;20441;-50
2022/09/29 11:51:20;;;;;;;3.70;2.22;;;;;;;26.82;42.65;99258.03;8305182;28;20503;-51
2022/09/29 11:55:56;;;;;;;4.40;2.20;;;;;;;26.54;43.35;99266.81;8275860;28;20400;-51
2022/09/29 12:00:06;;;;;;;5.65;2.70;;;;;;;24.78;44.45;99267.69;8294077;28;20447;-50
2022/09/29 12:04:20;;;;;;;5.50;2.53;;;;;;;25.34;44.11;99266.25;8269473;28;20081;-50
2022/09/29 12:13:49;;;;;;;4.35;2.03;;;;;;;24.98;45.50;99262.34;8380513;27;20390;-53
2022/09/29 12:17:55;;;;;;;3.30;1.95;;;;;;;25.05;45.37;99257.44;8346690;28;20068;-53
2022/09/29 12:22:01;;;;;;;4.60;1.67;;;;;;;24.41;45.69;99258.47;8362292;28;20048;-53
2022/09/29 12:26:08;;;;;;;5.03;2.38;;;;;;;23.17;46.86;99257.34;8376534;28;20032;-51
2022/09/29 12:30:28;;;;;;;4.03;1.40;;;;;;;25.92;42.54;99246.66;8375842;28;20383;-51
2022/09/29 12:34:41;;;;;;;4.05;1.80;;;;;;;24.11;43.66;99250.66;8378613;28;20555;-53
2022/09/29 12:38:44;;;;;;;5.15;1.30;;;;;;;23.17;45.72;99249.06;8376277;28;20064;-54
2022/09/29 12:43:23;;;;;;;2.67;1.35;;;;;;;20.09;50.17;99262.81;8378253;28;20518;-52
2022/09/29 12:47:52;;;;;;;3.85;2.50;;;;;;;19.06;55.08;99254.75;8366984;28;20041;-51
2022/09/29 12:51:55;;;;;;;5.15;3.15;;;;;;;19.15;58.35;99248.75;8365687;28;20071;-51
2022/09/29 12:56:01;;;;;;;4.85;2.95;;;;;;;17.69;59.19;99255.69;8377977;28;20052;-51
2022/09/29 13:00:11;;;;;;;6.85;2.78;;;;;;;17.68;59.93;99253.19;8368864;28;20036;-52
2022/09/29 13:04:42;;;;;;;7.30;3.58;;;;;;;17.42;62.78;99248.59;8377171;28;20115;-50
2022/09/29 13:09:04;;;;;;;5.90;3.55;;;;;;;17.42;61.17;99256.81;8377223;28;20453;-51
2022/09/29 13:13:27;;;;;;;9.98;3.80;;;;;;;17.25;62.67;99244.66;8372755;28;20124;-53
2022/09/29 13:27:01;;;;;;;9.52;3.80;;;;;;;16.60;62.59;99269.31;8411015;27;20368;-51
2022/09/29 13:31:07;;;;;;;6.90;3.63;;;;;;;16.52;62.68;99266.78;8395304;28;20068;-53
2022/09/29 13:35:16;;;;;;;4.75;2.78;;;;;;;16.65;62.42;99272.25;8391446;28;20501;-54
2022/09/29 13:39:25;;;;;;;8.48;3.58;;;;;;;16.53;64.16;99279.38;8407548;28;20067;-51
2022/09/29 13:43:37;;;;;;;6.93;3.60;;;;;;;16.38;64.95;99278.69;8409561;28;20089;-51
2022/09/29 13:47:45;;;;;;;5.70;3.58;;;;;;;16.21;65.14;99263.75;8399400;28;20041;-50
2022/09/29 13:51:50;;;;;;;4.75;3.28;;;;;;;16.25;66.92;99271.31;8411578;28;20036;-52
2022/09/29 13:56:10;;;;;;;4.75;3.28;;;;;;;16.23;64.90;99278.03;8409249;28;20239;-53
2022/09/29 14:00:17;;;;;;;5.68;3.00;;;;;;;16.21;66.97;99280.13;8394597;28;20040;-50
2022/09/29 14:04:54;;;;;;;7.82;3.20;;;;;;;16.18;65.78;99288.72;8413993;28;20498;-50
2022/09/29 14:09:16;;;;;;;8.38;3.50;;;;;;;16.11;67.21;99291.44;8410583;28;20127;-50
2022/09/29 14:13:30;;;;;;;9.27;3.28;;;;;;;16.05;65.32;99291.41;8406612;28;20044;-50
2022/09/29 14:17:36;;;;;;;5.75;3.60;;;;;;;16.14;66.15;99301.09;8411016;28;20075;-50
2022/09/29 14:21:53;;;;;;;4.18;3.03;;;;;;;16.21;65.78;99305.53;8410066;28;20044;-53
2022/09/29 14:25:55;;;;;;;5.78;2.50;;;;;;;16.54;65.45;99309.19;8407654;28;20110;-53
2022/09/29 14:30:20;;;;;;;7.82;3.10;;;;;;;16.67;63.00;99308.34;8410101;28;20045;-53
2022/09/29 14:34:23;;;;;;;8.93;2.83;;;;;;;16.83;60.94;99307.94;8406411;28;20073;-52
2022/09/29 14:38:29;;;;;;;5.22;2.78;;;;;;;16.67;60.43;99314.66;8388152;28;20517;-54
2022/09/29 14:42:29;;;;;;;4.93;2.83;;;;;;;16.77;62.26;99314.25;8403508;28;20219;-53
2022/09/29 14:52:08;;;;;;;3.63;2.22;;;;;;;16.84;63.33;99326.00;8386011;28;20047;-55
2022/09/29 15:00:16;;;;;;;6.90;2.70;;;;;;;16.79;61.89;99328.50;8394083;27;20381;-55
2022/09/29 15:04:17;;;;;;;4.05;2.25;;;;;;;16.84;61.61;99331.47;8379654;28;20036;-53
2022/09/29 15:08:30;;;;;;;5.25;2.70;;;;;;;16.71;61.45;99326.00;8378371;28;20033;-55
2022/09/29 15:12:34;;;;;;;2.85;2.25;;;;;;;16.65;61.92;99335.03;8372754;28;20044;-54
2022/09/29 15:16:51;;;;;;;8.25;2.30;;;;;;;16.65;61.71;99335.03;8342946;28;20397;-55
2022/09/29 15:21:03;;;;;;;4.55;2.70;;;;;;;16.61;59.86;99328.28;8345905;28;20114;-55
2022/09/29 15:25:32;;;;;;;4.38;2.20;;;;;;;16.65;60.62;99343.22;8347103;28;20375;-53
2022/09/29 15:29:33;;;;;;;4.18;2.63;;;;;;;16.59;60.63;99344.84;8342436;28;20040;-53
2022/09/29 15:33:37;;;;;;;11.10;3.20;;;;;;;16.75;63.06;99343.63;8346359;28;20060;-53
2022/09/29 15:38:14;;;;;;;3.25;2.10;;;;;;;16.53;64.41;99355.78;8346664;28;20033;-55
2022/09/29 15:42:20;;;;;;;7.03;2.35;;;;;;;16.37;64.43;99356.97;8346006;28;20092;-55
2022/09/29 15:46:24;;;;;;;7.07;2.72;;;;;;;16.20;65.11;99355.66;8340799;28;20076;-53
2022/09/29 15:50:30;;;;;;;5.30;2.50;;;;;;;16.16;65.82;99361.72;8344167;28;20048;-54
2022/09/29 15:54:36;;;;;;;5.28;2.38;;;;;;;16.12;65.12;99364.00;8339629;28;20040;-54
2022/09/29 15:58:43;;;;;;;5.63;2.38;;;;;;;16.11;65.25;99366.94;8343621;28;20196;-54
2022/09/29 16:02:44;;;;;;;5.93;2.67;;;;;;;16.06;66.78;99369.44;8335796;28;20049;-50
2022/09/29 16:06:45;;;;;;;9.13;2.40;;;;;;;16.04;65.56;99374.25;8345114;28;21403;-54
2022/09/29 16:10:54;;;;;;;11.75;3.13;;;;;;;16.00;65.59;99381.16;8329709;28;20065;-51
2022/09/29 16:14:56;;;;;;;5.63;2.85;;;;;;;15.97;66.29;99381.56;8315583;28;20541;-52
2022/09/29 16:19:02;;;;;;;13.38;3.70;;;;;;;15.64;68.82;99393.13;8324090;28;20109;-54
2022/09/29 16:23:07;;;;;;;7.40;2.67;;;;;;;15.48;71.79;99398.91;8319042;28;20219;-54
2022/09/29 16:27:44;;;;;;;7.38;4.07;;;;;;;15.59;70.11;99406.50;8316232;28;20734;-53
2022/09/29 16:31:47;;;;;;;5.15;3.10;;;;;;;15.39;70.30;99404.69;8314311;28;20117;-51
2022/09/29 16:36:01;;;;;;;4.97;3.00;;;;;;;15.36;71.00;99416.78;8323125;28;20053;-53
2022/09/29 16:40:02;;;;;;;5.53;2.33;;;;;;;15.34;70.87;99413.41;8319904;28;20045;-49
2022/09/29 16:44:16;;;;;;;4.72;2.92;;;;;;;15.24;71.54;99423.81;8320853;28;20552;-53
2022/09/29 16:48:17;;;;;;;7.25;3.10;;;;;;;15.13;71.31;99418.88;8321301;28;20120;-51
2022/09/29 16:52:27;;;;;;;4.20;3.47;;;;;;;15.03;72.77;99432.00;8320108;28;20037;-53
2022/09/29 16:56:33;;;;;;;5.25;2.55;;;;;;;14.78;74.13;99438.03;8320851;28;20045;-49
2022/09/29 17:00:35;;;;;;;7.10;2.67;;;;;;;14.53;76.05;99440.28;8318117;28;20068;-52
2022/09/29 17:04:36;;;;;;;7.65;2.80;;;;;;;14.51;75.95;99439.63;8311919;28;20461;-50
2022/09/29 17:08:36;;;;;;;5.25;3.13;;;;;;;14.36;77.37;99444.25;8314548;28;20138;-51
2022/09/29 17:12:37;;;;;;;3.38;2.88;;;;;;;13.82;82.58;99451.84;8318205;28;20504;-50
2022/09/29 17:16:40;;;;;;;8.25;2.83;;;;;;;13.62;85.11;99449.88;8305210;28;20088;-50
2022/09/29 17:20:40;;;;;;;3.80;2.05;;;;;;;13.21;86.54;99463.00;8316720;28;20033;-53
2022/09/29 17:24:41;;;;;;;7.15;2.13;;;;;;;12.60;91.78;99462.28;8318353;28;20049;-51
2022/09/29 17:28:41;;;;;;;6.40;3.17;;;;;;;12.50;93.03;99467.91;8316673;28;20128;-50
2022/09/29 17:32:45;;;;;;;6.43;2.60;;;;;;;12.74;92.21;99469.63;8313875;28;20090;-53
2022/09/29 17:36:45;;;;;;;3.13;2.50;;;;;;;12.80;91.87;99479.75;8318691;28;20037;-50
2022/09/29 17:40:55;;;;;;;9.25;2.50;;;;;;;12.75;92.63;99479.47;8315092;28;20042;-52
2022/09/29 17:44:55;;;;;;;3.13;1.92;;;;;;;12.37;93.46;99483.06;8313313;28;20487;-51
2022/09/29 17:48:56;;;;;;;5.15;2.10;;;;;;;12.28;93.28;99489.53;8313244;28;20410;-50
2022/09/29 17:52:58;;;;;;;4.13;2.08;;;;;;;12.34;93.16;99494.25;8316044;28;20438;-51
2022/09/29 17:56:59;;;;;;;3.83;2.10;;;;;;;12.20;95.14;99489.59;8312354;28;20416;-53
2022/09/29 18:00:59;;;;;;;26.08;14.27;;;;;;;12.61;91.02;99496.50;8309394;28;20053;-51
2022/09/29 18:04:59;;;;;;;17.02;9.25;;;;;;;12.74;88.79;99491.31;8315326;28;20125;-53
2022/09/29 18:09:00;;;;;;;5.75;4.03;;;;;;;12.68;91.56;99508.31;8308835;28;20041;-54
2022/09/29 18:13:00;;;;;;;6.40;2.70;;;;;;;12.28;96.72;99512.06;8317433;28;20041;-50
2022/09/29 18:17:04;;;;;;;10.07;3.05;;;;;;;11.45;100.00;99524.28;8317044;28;20037;-53
2022/09/29 18:21:05;;;;;;;3.70;2.67;;;;;;;11.53;100.00;99528.84;8317512;28;20046;-50
2022/09/29 18:25:06;;;;;;;5.00;2.90;;;;;;;11.86;98.78;99527.78;8318154;28;20033;-50
2022/09/29 18:29:22;;;;;;;5.90;2.65;;;;;;;11.93;99.69;99526.91;8317618;28;20048;-54
2022/09/29 18:33:23;;;;;;;4.78;2.80;;;;;;;11.55;100.00;99530.34;8315322;28;20056;-53
2022/09/29 18:37:23;;;;;;;9.30;3.15;;;;;;;11.54;100.00;99538.66;8320001;28;20056;-52
2022/09/29 18:41:23;;;;;;;5.88;3.53;;;;;;;11.58;100.00;99535.44;8319688;28;20179;-50
2022/09/29 18:45:28;;;;;;;2.85;2.55;;;;;;;11.31;100.00;99549.31;8319464;28;20136;-52
2022/09/29 18:49:28;;;;;;;5.45;2.45;;;;;;;11.08;100.00;99556.41;8318643;28;20392;-52
2022/09/29 18:53:29;;;;;;;6.05;3.08;;;;;;;10.74;100.00;99550.22;8312827;28;20048;-50
2022/09/29 18:57:31;;;;;;;8.18;2.92;;;;;;;11.00;100.00;99550.97;8315997;28;20133;-52
2022/09/29 19:01:31;;;;;;;7.35;3.50;;;;;;;10.61;100.00;99563.38;8316249;28;20091;-49
2022/09/29 19:05:33;;;;;;;4.97;2.75;;;;;;;10.38;100.00;99562.31;8318657;28;20091;-49
2022/09/29 19:09:34;;;;;;;5.45;3.55;;;;;;;10.30;100.00;99567.66;8316693;28;20041;-52
2022/09/29 19:13:35;;;;;;;3.80;3.08;;;;;;;10.45;100.00;99578.69;8317271;28;20132;-50
2022/09/29 19:17:35;;;;;;;8.00;3.88;;;;;;;10.31;100.00;99574.75;8312216;28;20068;-50
2022/09/29 19:21:37;;;;;;;5.25;3.55;;;;;;;10.22;100.00;99591.94;8316054;28;20044;-53
2022/09/29 19:25:40;;;;;;;4.90;3.42;;;;;;;9.95;100.00;99594.78;8313807;28;20064;-53
2022/09/29 19:29:40;;;;;;;5.55;3.80;;;;;;;9.98;100.00;99594.47;8317488;28;20462;-52
2022/09/29 19:33:41;;;;;;;4.15;3.75;;;;;;;10.37;100.00;99601.09;8316493;28;20052;-53
2022/09/29 19:37:42;;;;;;;5.53;3.72;;;;;;;10.12;100.00;99604.69;8315979;28;20037;-50
2022/09/29 19:41:43;;;;;;;7.00;3.67;;;;;;;9.72;100.00;99607.09;8316621;28;20029;-50
2022/09/29 19:45:43;;;;;;;6.03;4.25;;;;;;;9.62;100.00;99614.44;8318390;28;20336;-49
2022/09/29 19:49:44;;;;;;;6.72;3.80;;;;;;;9.67;100.00;99618.34;8313896;28;20107;-50
2022/09/29 19:53:44;;;;;;;8.02;4.90;;;;;;;9.69;100.00;99621.75;8319550;28;20107;-52
2022/09/29 19:57:45;;;;;;;7.63;4.15;;;;;;;9.60;100.00;99630.78;8319114;28;20053;-52
2022/09/29 20:01:54;;;;;;;7.88;5.70;;;;;;;9.56;100.00;99636.66;8313612;28;20037;-54